Time;durP1;ratioP1;P1;durP2;ratioP2;P2;SDS_P1;SDS_P2;PMS_P1;PMS_P2;Temp;Humidity;BMP_temperature;BMP_pressure;BME280_temperature;BME280_humidity;BME280_pressure;Samples;Min_cycle;Max_cycle;Signal;HPM_P1;HPM_P2
2021/09/15 00:01:38;;;;;;;12.20;11.20;;;19.50;99.90;;;;;;4974594;28;20728;-79
2021/09/15 00:04:05;;;;;;;12.27;11.37;;;19.50;99.90;;;;;;4967586;28;20210;-79
2021/09/15 00:06:32;;;;;;;12.10;11.20;;;19.50;99.90;;;;;;4984279;28;20213;-79
2021/09/15 00:09:00;;;;;;;12.20;11.27;;;19.50;99.90;;;;;;4978092;28;20745;-79
2021/09/15 00:11:27;;;;;;;12.40;11.50;;;19.50;99.90;;;;;;4965532;28;20209;-79
2021/09/15 00:13:54;;;;;;;12.23;11.13;;;19.50;99.90;;;;;;4964422;28;20487;-79
2021/09/15 00:16:21;;;;;;;12.20;11.20;;;19.50;99.90;;;;;;4981201;28;20224;-79
2021/09/15 00:18:47;;;;;;;12.50;11.60;;;19.50;99.90;;;;;;4984158;28;20552;-79
2021/09/15 00:21:14;;;;;;;12.47;11.53;;;19.50;99.90;;;;;;4981470;28;20272;-79
2021/09/15 00:23:41;;;;;;;12.30;11.33;;;19.50;99.90;;;;;;4965881;28;20693;-79
2021/09/15 00:26:09;;;;;;;12.70;11.70;;;19.50;99.90;;;;;;4987324;28;20213;-79
2021/09/15 00:28:36;;;;;;;12.03;11.13;;;19.50;99.90;;;;;;4982964;28;20264;-79
2021/09/15 00:31:03;;;;;;;12.00;11.20;;;19.50;99.90;;;;;;4964053;28;20205;-79
2021/09/15 00:33:30;;;;;;;12.10;11.20;;;19.50;99.90;;;;;;4964273;28;20260;-80
2021/09/15 00:35:57;;;;;;;12.47;11.57;;;19.50;99.90;;;;;;4963833;28;20225;-79
2021/09/15 00:38:24;;;;;;;13.20;12.10;;;19.50;99.90;;;;;;4963649;28;20248;-80
2021/09/15 00:40:51;;;;;;;13.33;12.33;;;19.50;99.90;;;;;;4965206;28;20221;-79
2021/09/15 00:43:19;;;;;;;13.20;12.27;;;19.40;99.90;;;;;;4963893;28;20690;-80
2021/09/15 00:45:48;;;;;;;13.50;12.50;;;19.40;99.90;;;;;;4996882;23;20231;-77
2021/09/15 00:48:15;;;;;;;12.87;11.97;;;19.40;99.90;;;;;;5007644;28;20209;-79
2021/09/15 00:50:42;;;;;;;12.53;11.70;;;19.30;99.90;;;;;;5002920;28;20626;-78
2021/09/15 00:53:10;;;;;;;13.60;12.60;;;19.30;99.90;;;;;;5002724;28;20216;-78
2021/09/15 00:55:38;;;;;;;13.93;12.93;;;19.30;99.90;;;;;;5004768;28;20288;-79
2021/09/15 00:58:07;;;;;;;13.80;12.80;;;19.30;99.90;;;;;;5032385;28;20199;-79
2021/09/15 01:00:36;;;;;;;13.10;12.20;;;19.30;99.90;;;;;;5014196;28;20217;-78
2021/09/15 01:03:04;;;;;;;14.20;13.20;;;19.20;99.90;;;;;;5014540;28;20299;-79
2021/09/15 01:05:31;;;;;;;13.97;12.97;;;19.20;99.90;;;;;;5005278;28;20196;-78
2021/09/15 01:08:02;;;;;;;13.80;12.80;;;19.20;99.90;;;;;;5014084;28;20568;-78
2021/09/15 01:10:31;;;;;;;13.80;12.80;;;19.20;99.90;;;;;;5032010;28;20212;-79
2021/09/15 01:13:08;;;;;;;13.33;12.43;;;19.20;99.90;;;;;;5014425;28;20199;-78
2021/09/15 01:15:42;;;;;;;13.90;12.80;;;19.20;99.90;;;;;;5030051;28;20223;-78
2021/09/15 01:18:48;;;;;;;13.57;12.67;;;19.20;99.90;;;;;;5023231;28;20214;-78
2021/09/15 01:21:54;;;;;;;13.80;12.80;;;19.20;99.90;;;;;;5020938;28;20200;-78
2021/09/15 01:24:38;;;;;;;13.60;12.70;;;19.20;99.90;;;;;;5014545;28;20210;-79
2021/09/15 01:27:37;;;;;;;13.33;12.43;;;19.20;99.90;;;;;;5004568;28;20216;-77
2021/09/15 01:30:21;;;;;;;14.77;13.57;;;19.20;99.90;;;;;;5003341;28;20200;-77
2021/09/15 01:32:52;;;;;;;14.20;13.10;;;19.20;99.90;;;;;;5014429;28;20197;-79
2021/09/15 01:35:20;;;;;;;14.30;13.30;;;19.20;99.90;;;;;;5014472;28;20201;-79
2021/09/15 01:37:49;;;;;;;10.53;9.70;;;19.20;99.90;;;;;;5013530;28;20210;-78
2021/09/15 01:40:16;;;;;;;10.87;9.97;;;19.20;99.90;;;;;;5018544;28;20211;-78
2021/09/15 01:42:43;;;;;;;11.10;10.00;;;19.20;99.90;;;;;;5014814;28;20669;-76
2021/09/15 01:45:13;;;;;;;11.50;10.40;;;19.20;99.90;;;;;;5014957;28;20205;-78
2021/09/15 01:47:41;;;;;;;11.00;10.10;;;19.20;99.90;;;;;;5018393;28;20728;-79
2021/09/15 01:50:09;;;;;;;10.60;9.70;;;19.10;99.90;;;;;;5013970;28;20196;-78
2021/09/15 01:52:38;;;;;;;10.30;9.40;;;19.10;99.90;;;;;;5018350;28;20248;-78
2021/09/15 01:55:21;;;;;;;10.60;9.77;;;19.10;99.90;;;;;;5018688;28;20203;-78
2021/09/15 01:57:51;;;;;;;10.30;9.50;;;19.10;99.90;;;;;;5015636;28;20192;-78
2021/09/15 02:00:44;;;;;;;10.50;9.70;;;19.00;99.90;;;;;;5006298;28;20231;-78
2021/09/15 02:03:31;;;;;;;10.47;9.57;;;19.00;99.90;;;;;;5028132;28;20291;-78
2021/09/15 02:06:18;;;;;;;9.80;9.10;;;19.00;99.90;;;;;;5007636;28;20228;-78
2021/09/15 02:08:50;;;;;;;10.27;9.47;;;19.00;99.90;;;;;;5006937;28;20198;-79
2021/09/15 02:11:32;;;;;;;10.33;9.53;;;18.90;99.90;;;;;;4998836;28;20230;-78
2021/09/15 02:13:59;;;;;;;10.63;9.73;;;18.90;99.90;;;;;;5017129;28;20200;-77
2021/09/15 02:16:28;;;;;;;10.63;9.80;;;18.90;99.90;;;;;;5018108;28;20599;-78
2021/09/15 02:18:55;;;;;;;10.80;10.00;;;18.90;99.90;;;;;;5014729;28;20287;-79
2021/09/15 02:21:36;;;;;;;11.13;10.23;;;18.90;99.90;;;;;;5014502;28;20266;-77
2021/09/15 02:24:22;;;;;;;12.30;11.40;;;18.90;99.90;;;;;;5033297;28;20207;-79
2021/09/15 02:27:19;;;;;;;11.50;10.60;;;18.80;99.90;;;;;;5031085;28;20327;-78
2021/09/15 02:29:47;;;;;;;12.10;11.10;;;18.80;99.90;;;;;;5018017;28;20231;-77
2021/09/15 02:32:27;;;;;;;11.80;10.83;;;18.80;99.90;;;;;;5014085;28;20203;-78
2021/09/15 02:35:16;;;;;;;11.30;10.40;;;18.80;99.90;;;;;;5009324;28;20254;-78
2021/09/15 02:37:58;;;;;;;11.17;10.27;;;18.80;99.90;;;;;;5013887;28;20235;-78
2021/09/15 02:40:48;;;;;;;11.40;10.50;;;18.80;99.90;;;;;;4998897;28;20369;-77
2021/09/15 02:43:42;;;;;;;11.30;10.40;;;18.80;99.90;;;;;;5010555;28;20200;-79
2021/09/15 02:46:31;;;;;;;10.70;9.90;;;18.80;99.90;;;;;;4993351;28;20307;-79
2021/09/15 02:49:12;;;;;;;10.80;10.00;;;18.80;99.90;;;;;;5011304;28;20201;-79
2021/09/15 02:51:53;;;;;;;10.23;9.30;;;18.80;99.90;;;;;;5007220;28;20220;-78
2021/09/15 02:54:27;;;;;;;10.30;9.50;;;18.80;99.90;;;;;;4999302;28;20284;-77
2021/09/15 02:57:17;;;;;;;10.13;9.33;;;18.80;99.90;;;;;;5025647;28;20318;-79
2021/09/15 02:59:49;;;;;;;11.20;10.40;;;18.80;99.90;;;;;;5007304;28;20208;-79
2021/09/15 03:02:34;;;;;;;10.87;9.97;;;18.80;99.90;;;;;;5025491;28;20603;-79
2021/09/15 03:05:33;;;;;;;11.03;10.23;;;18.80;99.90;;;;;;5001438;28;20559;-78
2021/09/15 03:08:19;;;;;;;10.97;10.10;;;18.80;99.90;;;;;;5028231;28;20614;-78
2021/09/15 03:10:46;;;;;;;10.60;9.80;;;18.70;99.90;;;;;;5028288;28;20278;-77
2021/09/15 03:13:13;;;;;;;11.17;10.27;;;18.70;99.90;;;;;;5017546;28;20207;-78
2021/09/15 03:15:41;;;;;;;11.27;10.33;;;18.70;99.90;;;;;;5013954;28;20203;-78
2021/09/15 03:18:08;;;;;;;10.80;10.00;;;18.70;99.90;;;;;;5010014;28;20273;-78
2021/09/15 03:20:35;;;;;;;10.13;9.43;;;18.70;99.90;;;;;;5009649;28;20247;-78
2021/09/15 03:23:02;;;;;;;11.00;10.20;;;18.70;99.90;;;;;;5012639;28;20212;-79
2021/09/15 03:25:31;;;;;;;11.50;10.63;;;18.70;99.90;;;;;;5007091;28;20200;-77
2021/09/15 03:27:58;;;;;;;11.07;10.17;;;18.70;99.90;;;;;;5014281;28;20199;-80
2021/09/15 03:30:25;;;;;;;11.50;10.60;;;18.70;99.90;;;;;;5013932;28;20202;-78
2021/09/15 03:32:54;;;;;;;11.13;10.33;;;18.70;99.90;;;;;;5014217;28;20188;-77
2021/09/15 03:35:20;;;;;;;12.63;11.63;;;18.70;99.90;;;;;;5009902;28;20254;-78
2021/09/15 03:37:48;;;;;;;12.10;10.93;;;18.70;99.90;;;;;;5017640;28;20195;-78
2021/09/15 03:40:15;;;;;;;12.50;11.47;;;18.60;99.90;;;;;;5018243;28;20200;-79
2021/09/15 03:42:42;;;;;;;12.37;11.47;;;18.60;99.90;;;;;;5016838;28;20206;-78
2021/09/15 03:45:09;;;;;;;11.53;10.53;;;18.60;99.90;;;;;;5018341;28;20291;-77
2021/09/15 03:47:37;;;;;;;11.20;10.30;;;18.60;99.90;;;;;;5016418;28;20239;-78
2021/09/15 03:50:07;;;;;;;11.57;10.57;;;18.60;99.90;;;;;;5017394;28;20215;-79
2021/09/15 03:52:34;;;;;;;12.40;11.37;;;18.60;99.90;;;;;;5013863;28;20629;-78
2021/09/15 03:55:01;;;;;;;11.67;10.80;;;18.60;99.90;;;;;;5014695;28;20290;-77
2021/09/15 03:57:28;;;;;;;13.20;12.00;;;18.60;99.90;;;;;;5035647;28;20294;-78
2021/09/15 03:59:55;;;;;;;11.70;10.80;;;18.60;99.90;;;;;;5036028;28;20672;-78
2021/09/15 04:02:22;;;;;;;11.60;10.70;;;18.60;99.90;;;;;;5016182;28;20218;-78
2021/09/15 04:04:49;;;;;;;12.50;11.40;;;18.60;99.90;;;;;;5016151;28;20192;-78
2021/09/15 04:07:19;;;;;;;14.27;13.17;;;18.60;99.90;;;;;;5011177;28;20593;-78
2021/09/15 04:09:46;;;;;;;13.07;11.97;;;18.60;99.90;;;;;;5012693;28;20254;-78
2021/09/15 04:12:13;;;;;;;12.67;11.63;;;18.60;99.90;;;;;;5012971;28;20207;-77
2021/09/15 04:14:41;;;;;;;11.90;11.07;;;18.60;99.90;;;;;;5011020;28;20572;-78
2021/09/15 04:17:08;;;;;;;12.53;11.53;;;18.60;99.90;;;;;;5016529;28;20223;-77
2021/09/15 04:19:35;;;;;;;12.80;11.80;;;18.70;99.90;;;;;;5007118;28;20204;-79
2021/09/15 04:22:02;;;;;;;12.77;11.77;;;18.60;99.90;;;;;;5034638;28;20223;-77
2021/09/15 04:32:44;;;;;;;16.33;15.13;;;18.70;99.90;;;;;;5016370;28;20664;-78
2021/09/15 04:35:12;;;;;;;17.10;15.60;;;18.70;99.90;;;;;;5016017;28;20206;-78
2021/09/15 04:37:39;;;;;;;17.67;16.37;;;18.70;99.90;;;;;;5016824;28;20251;-78
2021/09/15 04:40:09;;;;;;;17.40;15.90;;;18.70;99.90;;;;;;5016423;28;20331;-78
2021/09/15 04:42:36;;;;;;;16.90;15.70;;;18.70;99.90;;;;;;5016633;28;20224;-78
2021/09/15 04:45:03;;;;;;;15.07;14.03;;;18.70;99.90;;;;;;5016521;28;20204;-77
2021/09/15 04:47:31;;;;;;;13.30;12.30;;;18.70;99.90;;;;;;5016638;28;20278;-78
2021/09/15 04:49:59;;;;;;;13.80;12.53;;;18.70;99.90;;;;;;5015945;28;20298;-78
2021/09/15 04:52:26;;;;;;;15.53;14.43;;;18.70;99.90;;;;;;5016252;28;20207;-78
2021/09/15 04:54:53;;;;;;;14.60;13.60;;;18.70;99.90;;;;;;5017025;28;20195;-78
2021/09/15 04:57:21;;;;;;;15.60;14.50;;;18.70;99.90;;;;;;5016311;28;20226;-77
2021/09/15 04:59:48;;;;;;;16.33;15.23;;;18.70;99.90;;;;;;5015933;28;20216;-77
2021/09/15 05:02:15;;;;;;;16.20;15.10;;;18.70;99.90;;;;;;5016427;28;20311;-78
2021/09/15 05:04:46;;;;;;;16.17;14.90;;;18.70;99.90;;;;;;5016258;28;20575;-77
2021/09/15 05:07:28;;;;;;;14.10;13.10;;;18.70;99.90;;;;;;5007490;28;20219;-80
2021/09/15 05:09:54;;;;;;;13.33;12.33;;;18.70;99.90;;;;;;5016285;28;20253;-78
2021/09/15 05:12:23;;;;;;;13.17;12.07;;;18.70;99.90;;;;;;5011390;28;20202;-77
2021/09/15 05:14:50;;;;;;;12.80;11.80;;;18.70;99.90;;;;;;5013585;28;20216;-77
2021/09/15 05:17:17;;;;;;;12.93;12.03;;;18.70;99.90;;;;;;5016966;28;20620;-78
2021/09/15 05:19:44;;;;;;;14.07;13.03;;;18.70;99.90;;;;;;5034039;28;20200;-78
2021/09/15 05:22:11;;;;;;;15.73;14.53;;;18.70;99.90;;;;;;5008405;28;20215;-77
2021/09/15 05:24:38;;;;;;;12.83;11.93;;;18.70;99.90;;;;;;5014864;28;20254;-78
2021/09/15 05:27:06;;;;;;;16.23;15.03;;;18.70;99.90;;;;;;5014564;28;20255;-78
2021/09/15 05:29:35;;;;;;;17.30;16.00;;;18.70;99.90;;;;;;5013420;28;20200;-78
2021/09/15 05:32:03;;;;;;;17.37;16.17;;;18.80;99.90;;;;;;5013445;28;20196;-78
2021/09/15 05:34:30;;;;;;;13.00;11.90;;;18.70;99.90;;;;;;5015652;28;20253;-77
2021/09/15 05:36:57;;;;;;;13.00;12.00;;;18.70;99.90;;;;;;5013419;28;20264;-77
2021/09/15 05:39:24;;;;;;;14.07;12.87;;;18.80;99.90;;;;;;4996060;28;20291;-77
2021/09/15 05:41:51;;;;;;;13.40;12.40;;;18.80;99.90;;;;;;4993648;28;20283;-77
2021/09/15 05:44:17;;;;;;;13.03;11.93;;;18.80;99.90;;;;;;5007987;28;20219;-77
2021/09/15 05:46:46;;;;;;;14.67;13.47;;;18.80;99.90;;;;;;5013024;28;21338;-77
2021/09/15 05:49:12;;;;;;;14.97;13.80;;;18.80;99.90;;;;;;5008727;28;20204;-78
2021/09/15 05:51:43;;;;;;;14.43;13.23;;;18.80;99.90;;;;;;5009384;28;20195;-77
2021/09/15 05:54:10;;;;;;;14.40;13.30;;;18.90;99.90;;;;;;5010908;28;20219;-77
2021/09/15 05:56:38;;;;;;;17.77;16.57;;;18.90;99.90;;;;;;5013308;28;20227;-77
2021/09/15 05:59:06;;;;;;;15.03;13.83;;;18.90;99.90;;;;;;5007298;28;20260;-77
2021/09/15 06:01:33;;;;;;;15.60;14.33;;;18.90;99.90;;;;;;5009904;28;20228;-77
2021/09/15 06:04:01;;;;;;;15.63;14.33;;;18.90;99.90;;;;;;5006515;28;20212;-77
2021/09/15 06:06:49;;;;;;;15.57;14.27;;;18.90;99.90;;;;;;5013168;28;20223;-77
2021/09/15 06:09:20;;;;;;;15.00;13.87;;;18.90;99.90;;;;;;5030851;28;20707;-77
2021/09/15 06:11:47;;;;;;;14.97;13.87;;;18.80;99.90;;;;;;5008758;28;20673;-78
2021/09/15 06:14:15;;;;;;;15.33;14.13;;;18.80;99.90;;;;;;5010109;28;20196;-77
2021/09/15 06:16:42;;;;;;;14.40;13.20;;;18.70;99.90;;;;;;5014300;28;20217;-77
2021/09/15 06:19:11;;;;;;;15.47;14.17;;;18.70;99.90;;;;;;5016399;28;20210;-77
2021/09/15 06:21:54;;;;;;;15.47;14.30;;;18.70;99.90;;;;;;5015087;28;20216;-77
2021/09/15 06:24:41;;;;;;;15.73;14.43;;;18.60;99.90;;;;;;5015471;28;20243;-77
2021/09/15 06:27:08;;;;;;;15.00;13.80;;;18.60;99.90;;;;;;5016587;28;20224;-77
2021/09/15 06:29:36;;;;;;;14.93;13.83;;;18.60;99.90;;;;;;5014350;28;20203;-77
2021/09/15 06:32:03;;;;;;;15.20;14.07;;;18.60;99.90;;;;;;5032210;28;20548;-77
2021/09/15 06:34:31;;;;;;;14.73;13.57;;;18.50;99.90;;;;;;5014578;28;20613;-82
2021/09/15 06:36:58;;;;;;;14.53;13.43;;;18.60;99.90;;;;;;5035451;28;20211;-78
2021/09/15 06:39:25;;;;;;;15.30;14.07;;;18.50;99.90;;;;;;5015179;28;20208;-80
2021/09/15 06:41:52;;;;;;;15.57;14.17;;;18.50;99.90;;;;;;5008579;28;20262;-78
2021/09/15 06:44:19;;;;;;;16.23;14.93;;;18.60;99.90;;;;;;5016618;28;20200;-79
2021/09/15 06:46:45;;;;;;;16.20;14.90;;;18.60;99.90;;;;;;5037054;23;20366;-80
2021/09/15 06:49:12;;;;;;;15.83;14.60;;;18.60;99.90;;;;;;4982345;28;20198;-80
2021/09/15 06:51:40;;;;;;;15.13;14.00;;;18.60;99.90;;;;;;4993457;28;20193;-80
2021/09/15 06:54:08;;;;;;;16.87;15.37;;;18.60;99.90;;;;;;4971310;28;20693;-81
2021/09/15 06:56:35;;;;;;;15.80;14.60;;;18.60;99.90;;;;;;4991715;28;20228;-79
2021/09/15 06:59:02;;;;;;;16.33;15.13;;;18.70;99.90;;;;;;4973215;28;20671;-80
2021/09/15 07:01:29;;;;;;;16.17;14.87;;;18.70;99.90;;;;;;4981926;28;20284;-80
2021/09/15 07:03:56;;;;;;;17.30;15.93;;;18.70;99.90;;;;;;4953646;28;20218;-81
2021/09/15 07:06:23;;;;;;;15.87;14.40;;;18.80;99.90;;;;;;4957913;28;20703;-81
2021/09/15 07:08:52;;;;;;;14.67;13.40;;;18.80;99.90;;;;;;4974662;28;20189;-81
2021/09/15 07:11:19;;;;;;;15.50;14.27;;;18.80;99.90;;;;;;4961585;28;20301;-81
2021/09/15 07:13:46;;;;;;;15.07;13.87;;;18.90;99.90;;;;;;4962563;28;20209;-81
2021/09/15 07:16:13;;;;;;;15.17;13.97;;;18.90;99.90;;;;;;4958933;28;20225;-81
2021/09/15 07:18:40;;;;;;;14.67;13.47;;;18.90;99.90;;;;;;4979409;28;20210;-81
2021/09/15 07:21:07;;;;;;;19.90;18.50;;;19.00;99.90;;;;;;4965942;28;20208;-81
2021/09/15 07:23:33;;;;;;;19.03;17.73;;;19.00;99.90;;;;;;4978218;28;20195;-81
2021/09/15 07:26:02;;;;;;;19.87;18.47;;;19.00;99.90;;;;;;4964576;28;20201;-81
2021/09/15 07:28:28;;;;;;;19.67;18.27;;;19.00;99.90;;;;;;4980245;28;20206;-81
2021/09/15 07:30:55;;;;;;;20.57;19.00;;;19.00;99.90;;;;;;4979820;28;20201;-81
2021/09/15 07:33:22;;;;;;;18.80;17.40;;;19.10;99.90;;;;;;4962360;28;20209;-81
2021/09/15 07:35:49;;;;;;;19.60;18.30;;;19.20;99.90;;;;;;4974615;28;20201;-81
2021/09/15 07:38:16;;;;;;;17.73;16.33;;;19.20;99.90;;;;;;4957412;28;20226;-81
2021/09/15 07:40:45;;;;;;;18.87;17.57;;;19.20;99.90;;;;;;4982999;28;20213;-81
2021/09/15 07:43:13;;;;;;;14.00;12.90;;;19.30;99.90;;;;;;4963012;28;20278;-81
2021/09/15 07:45:40;;;;;;;9.20;8.30;;;19.50;99.90;;;;;;4983143;28;20202;-81
2021/09/15 07:48:07;;;;;;;14.87;13.77;;;19.50;99.90;;;;;;4980026;28;20706;-81
2021/09/15 07:50:34;;;;;;;9.20;8.30;;;19.50;99.90;;;;;;4965144;28;20198;-82
2021/09/15 07:53:01;;;;;;;15.90;14.70;;;19.50;99.90;;;;;;4977372;28;20198;-81
2021/09/15 07:55:28;;;;;;;9.67;8.67;;;19.50;99.90;;;;;;4971268;28;20191;-81
2021/09/15 07:57:55;;;;;;;18.27;16.97;;;19.50;99.90;;;;;;4981531;28;20296;-81
2021/09/15 08:00:23;;;;;;;17.00;15.70;;;19.50;99.90;;;;;;4974977;28;20206;-81
2021/09/15 08:02:50;;;;;;;16.23;15.07;;;19.50;99.90;;;;;;4957491;28;20214;-81
2021/09/15 08:05:17;;;;;;;15.97;14.60;;;19.40;99.90;;;;;;4960489;28;20701;-81
2021/09/15 08:07:45;;;;;;;16.20;15.10;;;19.40;99.90;;;;;;4958873;28;20245;-81
2021/09/15 08:10:12;;;;;;;15.67;14.57;;;19.50;99.90;;;;;;4973798;28;20203;-81
2021/09/15 08:12:39;;;;;;;16.53;15.33;;;19.50;99.90;;;;;;4970059;28;20202;-81
2021/09/15 08:15:06;;;;;;;13.40;12.33;;;19.50;99.90;;;;;;4957353;28;20210;-81
2021/09/15 08:17:35;;;;;;;14.47;13.47;;;19.60;99.90;;;;;;4976952;28;20211;-81
2021/09/15 08:20:02;;;;;;;15.90;14.80;;;19.60;99.90;;;;;;4984818;28;20268;-81
2021/09/15 08:22:28;;;;;;;7.60;6.00;;;19.60;99.90;;;;;;4974701;28;20216;-81
2021/09/15 08:24:55;;;;;;;10.00;6.87;;;19.60;99.90;;;;;;4963765;28;20212;-80
2021/09/15 08:27:22;;;;;;;9.20;8.50;;;19.60;99.90;;;;;;4960492;28;20245;-81
2021/09/15 08:29:49;;;;;;;11.63;10.63;;;19.70;99.90;;;;;;4976332;28;20263;-81
2021/09/15 08:32:16;;;;;;;12.93;11.83;;;19.60;99.90;;;;;;4974417;28;20207;-81
2021/09/15 08:34:44;;;;;;;10.70;9.80;;;19.60;99.90;;;;;;4970283;28;20207;-81
2021/09/15 08:37:11;;;;;;;8.90;7.70;;;19.60;99.90;;;;;;4972707;28;20640;-81
2021/09/15 08:39:38;;;;;;;8.63;7.43;;;19.50;99.90;;;;;;4977418;28;20231;-80
2021/09/15 08:42:06;;;;;;;10.83;8.13;;;19.60;99.90;;;;;;4981141;28;20217;-79
2021/09/15 08:44:33;;;;;;;8.37;7.47;;;19.50;99.90;;;;;;4969850;28;20209;-81
2021/09/15 08:47:00;;;;;;;8.03;7.23;;;19.50;99.90;;;;;;4958124;28;20602;-81
2021/09/15 08:49:29;;;;;;;8.20;7.10;;;19.50;99.90;;;;;;4977236;28;20197;-80
2021/09/15 08:51:58;;;;;;;7.90;7.10;;;19.50;99.90;;;;;;4954500;28;20289;-81
2021/09/15 08:54:24;;;;;;;8.73;6.90;;;19.50;99.90;;;;;;4951879;28;20205;-81
2021/09/15 08:56:51;;;;;;;7.80;7.00;;;19.40;99.90;;;;;;4955720;28;20246;-82
2021/09/15 08:59:18;;;;;;;8.13;7.33;;;19.40;99.90;;;;;;4975314;28;20254;-81
2021/09/15 09:01:46;;;;;;;8.10;7.20;;;19.40;99.90;;;;;;4964410;28;20295;-81
2021/09/15 09:04:15;;;;;;;8.57;7.33;;;19.40;99.90;;;;;;4976420;28;20198;-81
2021/09/15 09:06:47;;;;;;;7.57;6.87;;;19.40;99.90;;;;;;4958679;28;20718;-81
2021/09/15 09:09:15;;;;;;;7.83;7.03;;;19.40;99.90;;;;;;4955737;28;20286;-81
2021/09/15 09:11:44;;;;;;;7.17;6.43;;;19.40;99.90;;;;;;4969324;28;20202;-82
2021/09/15 09:14:11;;;;;;;7.60;6.73;;;19.40;99.90;;;;;;4979969;28;20197;-81
2021/09/15 09:16:42;;;;;;;7.03;6.33;;;19.40;99.90;;;;;;4974780;28;20223;-81
2021/09/15 09:19:10;;;;;;;7.17;6.47;;;19.40;99.90;;;;;;4975188;28;20243;-81
2021/09/15 09:21:40;;;;;;;7.20;5.70;;;19.30;99.90;;;;;;4962675;28;20299;-81
2021/09/15 09:24:10;;;;;;;7.80;6.70;;;19.30;99.90;;;;;;4980868;28;20598;-81
2021/09/15 09:26:53;;;;;;;6.90;5.87;;;19.10;99.90;;;;;;4963654;28;20225;-81
2021/09/15 09:29:23;;;;;;;6.67;5.97;;;19.10;99.90;;;;;;4977842;28;20194;-82
2021/09/15 09:32:00;;;;;;;10.43;9.47;;;19.00;99.90;;;;;;4961154;28;20242;-81
2021/09/15 09:34:28;;;;;;;11.47;10.50;;;19.00;99.90;;;;;;4980611;28;20287;-81
2021/09/15 09:36:59;;;;;;;15.27;14.20;;;19.00;99.90;;;;;;4959210;28;20706;-81
2021/09/15 09:39:35;;;;;;;9.23;7.57;;;19.00;99.90;;;;;;4956954;28;20199;-80
2021/09/15 09:42:05;;;;;;;10.07;6.57;;;18.90;99.90;;;;;;4965220;28;20249;-80
2021/09/15 09:44:32;;;;;;;7.90;7.20;;;19.00;99.90;;;;;;4964861;28;20198;-81
2021/09/15 09:47:18;;;;;;;8.57;7.87;;;19.00;99.90;;;;;;4953459;28;20771;-81
2021/09/15 09:49:58;;;;;;;10.00;9.10;;;19.20;99.90;;;;;;4964305;28;20213;-80
2021/09/15 09:52:25;;;;;;;9.47;8.57;;;19.30;99.90;;;;;;4972847;28;20678;-79
2021/09/15 09:54:58;;;;;;;9.47;8.70;;;19.40;99.90;;;;;;4976758;28;20210;-81
2021/09/15 09:57:28;;;;;;;9.07;8.27;;;19.60;99.90;;;;;;4973902;28;20226;-80
2021/09/15 09:59:55;;;;;;;10.27;9.47;;;19.80;99.90;;;;;;4983156;28;20193;-81
2021/09/15 10:02:22;;;;;;;8.07;7.47;;;19.90;99.90;;;;;;4982178;28;20218;-81
2021/09/15 10:04:49;;;;;;;11.97;11.17;;;20.00;99.90;;;;;;4967136;28;20737;-81
2021/09/15 10:07:17;;;;;;;8.00;7.40;;;20.20;99.90;;;;;;4981181;28;20235;-80
2021/09/15 10:09:44;;;;;;;10.20;9.50;;;20.40;99.90;;;;;;4966033;28;20205;-79
2021/09/15 10:12:12;;;;;;;12.63;11.63;;;20.60;99.90;;;;;;4982426;28;20606;-80
2021/09/15 10:14:40;;;;;;;14.23;13.13;;;20.70;99.90;;;;;;4976009;28;20253;-80
2021/09/15 10:17:11;;;;;;;14.03;12.87;;;20.70;99.90;;;;;;4954390;28;20283;-80
2021/09/15 10:19:41;;;;;;;14.40;13.40;;;20.80;99.90;;;;;;4963250;28;20240;-80
2021/09/15 10:22:11;;;;;;;14.07;13.07;;;20.90;99.90;;;;;;4963382;28;20208;-80
2021/09/15 10:24:55;;;;;;;14.23;13.23;;;21.00;99.90;;;;;;4955826;28;20216;-79
2021/09/15 10:27:23;;;;;;;14.07;13.07;;;21.10;99.90;;;;;;4965311;28;20221;-80
2021/09/15 10:30:07;;;;;;;13.87;12.93;;;21.10;99.90;;;;;;4967689;28;20256;-81
2021/09/15 10:32:35;;;;;;;13.67;12.77;;;21.30;99.90;;;;;;4956322;28;20210;-80
2021/09/15 10:35:02;;;;;;;14.17;13.27;;;21.40;99.90;;;;;;4988167;28;20252;-80
2021/09/15 10:37:53;;;;;;;7.30;6.70;;;21.40;99.90;;;;;;4983681;28;20228;-80
2021/09/15 10:40:43;;;;;;;13.80;12.87;;;21.30;99.90;;;;;;4966617;28;20582;-80
2021/09/15 10:43:52;;;;;;;15.00;14.10;;;21.20;99.90;;;;;;4979169;28;20245;-80
2021/09/15 10:46:25;;;;;;;6.30;5.70;;;21.10;99.90;;;;;;4976289;28;20256;-80
2021/09/15 10:49:42;;;;;;;13.80;12.90;;;21.00;99.90;;;;;;4959304;28;20715;-80
2021/09/15 10:52:37;;;;;;;15.60;14.50;;;21.00;99.90;;;;;;4962542;28;20627;-80
2021/09/15 10:55:16;;;;;;;15.40;14.10;;;21.30;99.90;;;;;;4935557;28;20205;-80
2021/09/15 10:57:44;;;;;;;15.37;14.27;;;21.40;99.90;;;;;;4986859;28;20221;-80
2021/09/15 11:00:25;;;;;;;7.33;6.63;;;21.50;99.90;;;;;;4963442;28;20268;-81
2021/09/15 11:02:56;;;;;;;9.13;8.43;;;21.60;99.90;;;;;;4974922;28;20209;-80
2021/09/15 11:05:47;;;;;;;8.37;5.97;;;21.70;99.90;;;;;;4964873;28;20198;-80
2021/09/15 11:08:22;;;;;;;6.03;5.43;;;21.70;99.90;;;;;;4960931;28;20600;-81
2021/09/15 11:10:49;;;;;;;7.33;6.73;;;21.80;99.90;;;;;;4960611;28;20201;-80
2021/09/15 11:13:17;;;;;;;8.23;7.63;;;21.70;99.90;;;;;;4968360;28;20201;-80
2021/09/15 11:15:45;;;;;;;7.27;6.57;;;21.60;99.90;;;;;;4965027;28;20202;-80
2021/09/15 11:18:24;;;;;;;7.97;7.17;;;21.60;99.90;;;;;;4986003;28;20236;-80
2021/09/15 11:20:54;;;;;;;6.77;5.90;;;21.50;99.90;;;;;;4967720;28;20197;-80
2021/09/15 11:23:24;;;;;;;6.57;5.67;;;21.40;99.90;;;;;;4971218;28;20250;-81
2021/09/15 11:25:51;;;;;;;11.00;10.10;;;21.50;99.90;;;;;;4978066;28;20193;-81
2021/09/15 11:28:22;;;;;;;6.73;5.47;;;21.60;99.90;;;;;;4985788;28;20208;-80
2021/09/15 11:30:59;;;;;;;13.93;12.97;;;21.60;99.90;;;;;;4974584;28;20198;-80
2021/09/15 11:33:30;;;;;;;13.77;12.87;;;21.60;99.90;;;;;;4969084;28;20304;-80
2021/09/15 11:35:58;;;;;;;14.20;13.30;;;21.60;99.90;;;;;;4943187;28;20258;-81
2021/09/15 11:38:28;;;;;;;14.50;13.60;;;21.50;99.90;;;;;;4967627;28;20209;-81
2021/09/15 11:41:05;;;;;;;13.60;12.70;;;21.50;99.90;;;;;;4978049;28;20692;-81
2021/09/15 11:43:32;;;;;;;13.97;12.97;;;21.50;99.90;;;;;;4970815;28;20775;-81
2021/09/15 11:45:59;;;;;;;13.70;12.60;;;21.50;99.90;;;;;;4968185;28;20259;-80
2021/09/15 11:48:28;;;;;;;13.30;12.40;;;21.60;99.90;;;;;;4972335;28;20261;-80
2021/09/15 11:50:55;;;;;;;13.53;12.53;;;21.60;99.90;;;;;;4964620;28;20201;-81
2021/09/15 11:53:26;;;;;;;13.40;12.40;;;21.60;99.90;;;;;;4976556;28;20272;-81
2021/09/15 11:56:00;;;;;;;13.20;12.30;;;21.70;99.90;;;;;;4975828;28;20195;-81
2021/09/15 11:58:27;;;;;;;14.10;13.20;;;21.90;99.90;;;;;;4971337;28;20279;-80
2021/09/15 12:00:54;;;;;;;13.37;12.30;;;22.00;99.90;;;;;;4955874;28;20249;-81
2021/09/15 12:03:26;;;;;;;13.33;12.43;;;22.10;99.90;;;;;;4963889;28;20268;-81
2021/09/15 12:05:54;;;;;;;13.20;12.40;;;22.20;99.90;;;;;;4959907;28;20258;-81
2021/09/15 12:08:22;;;;;;;13.10;12.20;;;22.40;99.90;;;;;;4965091;28;20208;-81
2021/09/15 12:10:49;;;;;;;13.53;12.63;;;22.50;99.90;;;;;;4976732;28;20244;-82
2021/09/15 12:13:17;;;;;;;11.33;10.43;;;22.60;99.90;;;;;;4983366;28;20256;-81
2021/09/15 12:15:45;;;;;;;5.73;5.10;;;22.80;99.90;;;;;;4980375;28;20213;-78
2021/09/15 12:18:12;;;;;;;11.10;10.30;;;23.10;99.90;;;;;;4971278;28;20219;-78
2021/09/15 12:20:40;;;;;;;5.97;4.87;;;23.40;99.90;;;;;;4983799;28;20203;-78
2021/09/15 12:23:08;;;;;;;6.47;5.10;;;23.70;99.90;;;;;;4973467;28;20260;-78
2021/09/15 12:25:36;;;;;;;7.47;5.20;;;23.80;99.90;;;;;;4968667;28;20205;-79
2021/09/15 12:28:03;;;;;;;8.53;7.33;;;24.10;99.90;;;;;;4975809;28;20277;-78
2021/09/15 12:30:30;;;;;;;11.50;10.70;;;24.20;99.90;;;;;;4984973;28;20300;-78
2021/09/15 12:33:01;;;;;;;12.87;11.87;;;24.30;99.90;;;;;;4980222;28;20205;-77
2021/09/15 12:35:34;;;;;;;11.10;10.20;;;24.30;99.90;;;;;;4961312;28;20619;-77
2021/09/15 12:38:03;;;;;;;11.60;10.80;;;24.50;99.90;;;;;;4983413;28;20643;-78
2021/09/15 12:40:33;;;;;;;12.20;11.30;;;24.50;99.90;;;;;;4983899;28;20252;-77
2021/09/15 12:43:03;;;;;;;12.20;11.30;;;24.50;99.90;;;;;;4960844;28;20216;-79
2021/09/15 12:45:31;;;;;;;11.90;11.03;;;24.40;99.90;;;;;;4955254;28;20670;-78
2021/09/15 12:47:58;;;;;;;10.47;9.77;;;24.30;99.90;;;;;;4996478;23;20232;-79
2021/09/15 12:50:28;;;;;;;9.93;9.23;;;24.40;99.90;;;;;;4987581;28;20197;-78
2021/09/15 12:53:08;;;;;;;13.07;12.07;;;24.50;99.90;;;;;;4994355;28;20544;-77
2021/09/15 12:55:40;;;;;;;9.87;9.13;;;24.30;99.90;;;;;;4994152;28;20681;-77
2021/09/15 12:58:08;;;;;;;4.37;3.97;;;24.20;99.90;;;;;;4996911;28;20638;-77